sensor_id;sensor_type;location;lat;lon;timestamp;P1;durP1;ratioP1;P2;durP2;ratioP2
209;SDS011;90;48.810;9.120;2023-05-07T00:02:01;6.13;;;4.40;;
209;SDS011;90;48.810;9.120;2023-05-07T00:04:28;6.67;;;4.27;;
209;SDS011;90;48.810;9.120;2023-05-07T00:07:02;5.73;;;4.57;;
209;SDS011;90;48.810;9.120;2023-05-07T00:09:28;5.10;;;4.47;;
209;SDS011;90;48.810;9.120;2023-05-07T00:11:55;5.40;;;4.40;;
209;SDS011;90;48.810;9.120;2023-05-07T00:14:22;4.70;;;4.40;;
209;SDS011;90;48.810;9.120;2023-05-07T00:16:48;5.30;;;4.27;;
209;SDS011;90;48.810;9.120;2023-05-07T00:19:15;4.33;;;3.93;;
209;SDS011;90;48.810;9.120;2023-05-07T00:21:42;5.07;;;4.77;;
209;SDS011;90;48.810;9.120;2023-05-07T00:24:10;11.07;;;5.10;;
209;SDS011;90;48.810;9.120;2023-05-07T00:26:36;7.87;;;4.97;;
209;SDS011;90;48.810;9.120;2023-05-07T00:29:03;6.97;;;4.50;;
209;SDS011;90;48.810;9.120;2023-05-07T00:31:30;5.07;;;4.47;;
209;SDS011;90;48.810;9.120;2023-05-07T00:33:57;4.93;;;4.63;;
209;SDS011;90;48.810;9.120;2023-05-07T00:36:23;7.13;;;4.67;;
209;SDS011;90;48.810;9.120;2023-05-07T00:38:51;5.33;;;4.37;;
209;SDS011;90;48.810;9.120;2023-05-07T00:41:19;4.97;;;4.67;;
209;SDS011;90;48.810;9.120;2023-05-07T00:43:46;5.00;;;4.70;;
209;SDS011;90;48.810;9.120;2023-05-07T00:46:13;6.80;;;4.70;;
209;SDS011;90;48.810;9.120;2023-05-07T00:48:40;6.00;;;4.53;;
209;SDS011;90;48.810;9.120;2023-05-07T00:51:07;5.00;;;4.67;;
209;SDS011;90;48.810;9.120;2023-05-07T00:53:36;4.83;;;4.53;;
209;SDS011;90;48.810;9.120;2023-05-07T00:56:03;7.80;;;5.17;;
209;SDS011;90;48.810;9.120;2023-05-07T00:58:32;5.60;;;4.97;;
209;SDS011;90;48.810;9.120;2023-05-07T01:00:59;5.33;;;4.37;;
209;SDS011;90;48.810;9.120;2023-05-07T01:03:26;8.70;;;4.80;;
209;SDS011;90;48.810;9.120;2023-05-07T01:05:53;5.23;;;4.80;;
209;SDS011;90;48.810;9.120;2023-05-07T01:08:21;6.10;;;4.83;;
209;SDS011;90;48.810;9.120;2023-05-07T01:10:49;6.80;;;4.53;;
209;SDS011;90;48.810;9.120;2023-05-07T01:13:17;6.10;;;5.40;;
209;SDS011;90;48.810;9.120;2023-05-07T01:15:46;5.67;;;4.20;;
209;SDS011;90;48.810;9.120;2023-05-07T01:18:13;5.80;;;4.67;;
209;SDS011;90;48.810;9.120;2023-05-07T01:20:40;4.70;;;4.40;;
209;SDS011;90;48.810;9.120;2023-05-07T01:23:09;5.10;;;4.23;;
209;SDS011;90;48.810;9.120;2023-05-07T01:25:37;5.27;;;4.97;;
209;SDS011;90;48.810;9.120;2023-05-07T01:28:04;4.93;;;4.63;;
209;SDS011;90;48.810;9.120;2023-05-07T01:30:31;6.67;;;5.60;;
209;SDS011;90;48.810;9.120;2023-05-07T01:33:00;5.67;;;5.20;;
209;SDS011;90;48.810;9.120;2023-05-07T01:35:32;6.17;;;4.83;;
209;SDS011;90;48.810;9.120;2023-05-07T01:38:03;6.53;;;5.60;;
209;SDS011;90;48.810;9.120;2023-05-07T01:40:32;4.70;;;4.40;;
209;SDS011;90;48.810;9.120;2023-05-07T01:43:00;6.00;;;5.50;;
209;SDS011;90;48.810;9.120;2023-05-07T01:45:28;6.13;;;5.27;;
209;SDS011;90;48.810;9.120;2023-05-07T01:47:56;5.73;;;4.90;;
209;SDS011;90;48.810;9.120;2023-05-07T01:50:24;5.27;;;5.00;;
209;SDS011;90;48.810;9.120;2023-05-07T01:52:51;7.63;;;5.43;;
209;SDS011;90;48.810;9.120;2023-05-07T01:55:18;6.83;;;5.53;;
209;SDS011;90;48.810;9.120;2023-05-07T01:57:46;12.20;;;6.20;;
209;SDS011;90;48.810;9.120;2023-05-07T02:00:13;7.67;;;6.23;;
209;SDS011;90;48.810;9.120;2023-05-07T02:02:40;5.77;;;5.47;;
209;SDS011;90;48.810;9.120;2023-05-07T02:05:09;7.47;;;5.30;;
209;SDS011;90;48.810;9.120;2023-05-07T02:07:36;5.60;;;5.30;;
209;SDS011;90;48.810;9.120;2023-05-07T02:10:03;7.23;;;5.60;;
209;SDS011;90;48.810;9.120;2023-05-07T02:12:31;8.07;;;5.27;;
209;SDS011;90;48.810;9.120;2023-05-07T02:14:59;8.10;;;5.60;;
209;SDS011;90;48.810;9.120;2023-05-07T02:17:25;6.07;;;5.10;;
209;SDS011;90;48.810;9.120;2023-05-07T02:19:52;13.67;;;5.57;;
209;SDS011;90;48.810;9.120;2023-05-07T02:22:19;7.70;;;5.23;;
209;SDS011;90;48.810;9.120;2023-05-07T02:24:46;7.37;;;5.60;;
209;SDS011;90;48.810;9.120;2023-05-07T02:27:12;6.10;;;5.10;;
209;SDS011;90;48.810;9.120;2023-05-07T02:29:39;6.50;;;5.60;;
209;SDS011;90;48.810;9.120;2023-05-07T02:32:07;8.50;;;5.83;;
209;SDS011;90;48.810;9.120;2023-05-07T02:34:34;5.27;;;4.97;;
209;SDS011;90;48.810;9.120;2023-05-07T02:37:01;5.90;;;5.37;;
209;SDS011;90;48.810;9.120;2023-05-07T02:39:27;7.10;;;5.20;;
209;SDS011;90;48.810;9.120;2023-05-07T02:41:54;7.33;;;5.70;;
209;SDS011;90;48.810;9.120;2023-05-07T02:44:21;5.90;;;5.50;;
209;SDS011;90;48.810;9.120;2023-05-07T02:46:47;7.93;;;5.97;;
209;SDS011;90;48.810;9.120;2023-05-07T02:49:16;5.47;;;5.10;;
209;SDS011;90;48.810;9.120;2023-05-07T02:51:42;6.67;;;5.50;;
209;SDS011;90;48.810;9.120;2023-05-07T02:54:09;5.33;;;5.07;;
209;SDS011;90;48.810;9.120;2023-05-07T02:56:36;6.97;;;5.50;;
209;SDS011;90;48.810;9.120;2023-05-07T02:59:02;6.27;;;5.53;;
209;SDS011;90;48.810;9.120;2023-05-07T03:01:29;7.20;;;5.60;;
209;SDS011;90;48.810;9.120;2023-05-07T03:03:56;5.90;;;5.50;;
209;SDS011;90;48.810;9.120;2023-05-07T03:06:25;9.33;;;5.93;;
209;SDS011;90;48.810;9.120;2023-05-07T03:08:52;6.20;;;5.90;;
209;SDS011;90;48.810;9.120;2023-05-07T03:11:18;5.43;;;5.13;;
209;SDS011;90;48.810;9.120;2023-05-07T03:13:45;5.63;;;5.33;;
209;SDS011;90;48.810;9.120;2023-05-07T03:16:14;10.40;;;6.10;;
209;SDS011;90;48.810;9.120;2023-05-07T03:18:40;6.80;;;5.57;;
209;SDS011;90;48.810;9.120;2023-05-07T03:21:07;6.97;;;5.40;;
209;SDS011;90;48.810;9.120;2023-05-07T03:23:35;8.47;;;6.10;;
209;SDS011;90;48.810;9.120;2023-05-07T03:26:02;7.03;;;5.93;;
209;SDS011;90;48.810;9.120;2023-05-07T03:28:29;9.53;;;6.10;;
209;SDS011;90;48.810;9.120;2023-05-07T03:30:55;8.40;;;6.10;;
209;SDS011;90;48.810;9.120;2023-05-07T03:33:22;6.10;;;5.80;;
209;SDS011;90;48.810;9.120;2023-05-07T03:35:49;5.80;;;5.20;;
209;SDS011;90;48.810;9.120;2023-05-07T03:38:15;10.53;;;5.80;;
209;SDS011;90;48.810;9.120;2023-05-07T03:40:43;5.40;;;5.10;;
209;SDS011;90;48.810;9.120;2023-05-07T03:43:10;5.80;;;5.50;;
209;SDS011;90;48.810;9.120;2023-05-07T03:45:37;5.40;;;5.17;;
209;SDS011;90;48.810;9.120;2023-05-07T03:48:04;6.30;;;4.90;;
209;SDS011;90;48.810;9.120;2023-05-07T03:50:30;6.40;;;5.37;;
209;SDS011;90;48.810;9.120;2023-05-07T03:52:57;6.27;;;5.40;;
209;SDS011;90;48.810;9.120;2023-05-07T03:55:23;7.63;;;5.50;;
209;SDS011;90;48.810;9.120;2023-05-07T03:57:52;5.07;;;4.77;;
209;SDS011;90;48.810;9.120;2023-05-07T04:00:18;6.13;;;5.13;;
209;SDS011;90;48.810;9.120;2023-05-07T04:02:46;5.80;;;5.43;;
209;SDS011;90;48.810;9.120;2023-05-07T04:05:13;5.50;;;5.03;;
209;SDS011;90;48.810;9.120;2023-05-07T04:07:40;6.77;;;5.23;;
209;SDS011;90;48.810;9.120;2023-05-07T04:10:07;5.40;;;5.07;;
209;SDS011;90;48.810;9.120;2023-05-07T04:12:35;6.63;;;5.37;;
209;SDS011;90;48.810;9.120;2023-05-07T04:15:03;5.53;;;5.20;;
209;SDS011;90;48.810;9.120;2023-05-07T04:17:30;5.43;;;5.07;;
209;SDS011;90;48.810;9.120;2023-05-07T04:19:57;5.30;;;5.00;;
209;SDS011;90;48.810;9.120;2023-05-07T04:22:23;5.67;;;5.00;;
209;SDS011;90;48.810;9.120;2023-05-07T04:24:50;6.53;;;5.00;;
209;SDS011;90;48.810;9.120;2023-05-07T04:27:17;5.30;;;4.97;;
209;SDS011;90;48.810;9.120;2023-05-07T04:29:43;6.17;;;4.80;;
209;SDS011;90;48.810;9.120;2023-05-07T04:32:13;8.87;;;5.00;;
209;SDS011;90;48.810;9.120;2023-05-07T04:34:40;8.00;;;5.60;;
209;SDS011;90;48.810;9.120;2023-05-07T04:37:06;8.10;;;5.07;;
209;SDS011;90;48.810;9.120;2023-05-07T04:39:34;5.23;;;4.93;;
209;SDS011;90;48.810;9.120;2023-05-07T04:42:01;6.50;;;4.90;;
209;SDS011;90;48.810;9.120;2023-05-07T04:44:29;6.07;;;5.17;;
209;SDS011;90;48.810;9.120;2023-05-07T04:46:56;6.70;;;5.20;;
209;SDS011;90;48.810;9.120;2023-05-07T04:49:24;5.03;;;4.60;;
209;SDS011;90;48.810;9.120;2023-05-07T04:51:50;6.83;;;4.93;;
209;SDS011;90;48.810;9.120;2023-05-07T04:54:17;6.70;;;5.43;;
209;SDS011;90;48.810;9.120;2023-05-07T04:56:44;5.83;;;5.50;;
209;SDS011;90;48.810;9.120;2023-05-07T04:59:10;5.30;;;4.97;;
209;SDS011;90;48.810;9.120;2023-05-07T05:01:37;5.60;;;4.80;;
209;SDS011;90;48.810;9.120;2023-05-07T05:04:05;6.60;;;5.37;;
209;SDS011;90;48.810;9.120;2023-05-07T05:06:33;5.40;;;5.03;;
209;SDS011;90;48.810;9.120;2023-05-07T05:09:00;5.83;;;5.53;;
209;SDS011;90;48.810;9.120;2023-05-07T05:11:26;6.40;;;5.10;;
209;SDS011;90;48.810;9.120;2023-05-07T05:13:53;4.57;;;4.27;;
209;SDS011;90;48.810;9.120;2023-05-07T05:16:20;5.13;;;4.63;;
209;SDS011;90;48.810;9.120;2023-05-07T05:18:46;6.50;;;5.57;;
209;SDS011;90;48.810;9.120;2023-05-07T05:21:13;5.57;;;5.10;;
209;SDS011;90;48.810;9.120;2023-05-07T05:23:41;5.33;;;5.03;;
209;SDS011;90;48.810;9.120;2023-05-07T05:26:08;5.70;;;5.40;;
209;SDS011;90;48.810;9.120;2023-05-07T05:28:35;5.50;;;5.10;;
209;SDS011;90;48.810;9.120;2023-05-07T05:31:02;10.37;;;5.87;;
209;SDS011;90;48.810;9.120;2023-05-07T05:33:28;6.90;;;5.50;;
209;SDS011;90;48.810;9.120;2023-05-07T05:35:55;6.53;;;5.57;;
209;SDS011;90;48.810;9.120;2023-05-07T05:38:22;6.90;;;5.40;;
209;SDS011;90;48.810;9.120;2023-05-07T05:40:50;6.13;;;5.27;;
209;SDS011;90;48.810;9.120;2023-05-07T05:43:16;9.17;;;5.47;;
209;SDS011;90;48.810;9.120;2023-05-07T05:45:43;8.40;;;5.70;;
209;SDS011;90;48.810;9.120;2023-05-07T05:48:11;6.37;;;6.00;;
209;SDS011;90;48.810;9.120;2023-05-07T05:50:38;5.80;;;5.33;;
209;SDS011;90;48.810;9.120;2023-05-07T05:53:04;5.83;;;5.53;;
209;SDS011;90;48.810;9.120;2023-05-07T05:55:31;8.93;;;5.97;;
209;SDS011;90;48.810;9.120;2023-05-07T05:57:59;6.60;;;6.20;;
209;SDS011;90;48.810;9.120;2023-05-07T06:00:30;8.13;;;6.97;;
209;SDS011;90;48.810;9.120;2023-05-07T06:02:56;8.53;;;6.70;;
209;SDS011;90;48.810;9.120;2023-05-07T06:05:23;8.67;;;6.93;;
209;SDS011;90;48.810;9.120;2023-05-07T06:07:50;7.40;;;6.40;;
209;SDS011;90;48.810;9.120;2023-05-07T06:10:17;8.67;;;6.97;;
209;SDS011;90;48.810;9.120;2023-05-07T06:12:44;9.83;;;5.37;;
209;SDS011;90;48.810;9.120;2023-05-07T06:15:12;23.30;;;7.53;;
209;SDS011;90;48.810;9.120;2023-05-07T06:17:38;7.37;;;6.97;;
209;SDS011;90;48.810;9.120;2023-05-07T06:20:06;8.47;;;7.63;;
209;SDS011;90;48.810;9.120;2023-05-07T06:22:33;11.90;;;8.90;;
209;SDS011;90;48.810;9.120;2023-05-07T06:25:00;10.93;;;9.27;;
209;SDS011;90;48.810;9.120;2023-05-07T06:27:27;12.57;;;8.40;;
209;SDS011;90;48.810;9.120;2023-05-07T06:29:54;10.03;;;7.97;;
209;SDS011;90;48.810;9.120;2023-05-07T06:32:22;11.87;;;8.50;;
209;SDS011;90;48.810;9.120;2023-05-07T06:34:48;9.40;;;7.83;;
209;SDS011;90;48.810;9.120;2023-05-07T06:37:15;14.57;;;8.30;;
209;SDS011;90;48.810;9.120;2023-05-07T06:39:42;11.93;;;9.00;;
209;SDS011;90;48.810;9.120;2023-05-07T06:42:08;10.70;;;8.43;;
209;SDS011;90;48.810;9.120;2023-05-07T06:44:35;12.50;;;8.77;;
209;SDS011;90;48.810;9.120;2023-05-07T06:47:02;11.03;;;8.30;;
209;SDS011;90;48.810;9.120;2023-05-07T06:49:31;10.40;;;9.10;;
209;SDS011;90;48.810;9.120;2023-05-07T06:51:58;10.70;;;8.27;;
209;SDS011;90;48.810;9.120;2023-05-07T06:54:25;9.00;;;7.73;;
209;SDS011;90;48.810;9.120;2023-05-07T06:56:51;12.90;;;8.23;;
209;SDS011;90;48.810;9.120;2023-05-07T06:59:18;9.83;;;7.83;;
209;SDS011;90;48.810;9.120;2023-05-07T07:01:45;8.40;;;7.97;;
209;SDS011;90;48.810;9.120;2023-05-07T07:04:12;7.60;;;7.20;;
209;SDS011;90;48.810;9.120;2023-05-07T07:06:40;9.77;;;7.60;;
209;SDS011;90;48.810;9.120;2023-05-07T07:09:06;10.63;;;8.70;;
209;SDS011;90;48.810;9.120;2023-05-07T07:11:33;11.00;;;7.37;;
209;SDS011;90;48.810;9.120;2023-05-07T07:14:00;8.93;;;7.23;;
209;SDS011;90;48.810;9.120;2023-05-07T07:16:27;11.03;;;7.23;;
209;SDS011;90;48.810;9.120;2023-05-07T07:18:54;8.00;;;7.60;;
209;SDS011;90;48.810;9.120;2023-05-07T07:21:20;8.13;;;7.20;;
209;SDS011;90;48.810;9.120;2023-05-07T07:23:48;9.43;;;6.77;;
209;SDS011;90;48.810;9.120;2023-05-07T07:26:16;8.47;;;7.20;;
209;SDS011;90;48.810;9.120;2023-05-07T07:28:43;8.53;;;8.00;;
209;SDS011;90;48.810;9.120;2023-05-07T07:31:10;8.47;;;7.40;;
209;SDS011;90;48.810;9.120;2023-05-07T07:33:36;9.93;;;7.40;;
209;SDS011;90;48.810;9.120;2023-05-07T07:36:04;7.00;;;6.60;;
209;SDS011;90;48.810;9.120;2023-05-07T07:38:32;7.47;;;7.07;;
209;SDS011;90;48.810;9.120;2023-05-07T07:41:00;8.67;;;6.73;;
209;SDS011;90;48.810;9.120;2023-05-07T07:43:27;7.83;;;7.43;;
209;SDS011;90;48.810;9.120;2023-05-07T07:45:53;7.73;;;6.27;;
209;SDS011;90;48.810;9.120;2023-05-07T07:48:20;6.00;;;5.70;;
209;SDS011;90;48.810;9.120;2023-05-07T07:50:48;7.50;;;6.50;;
209;SDS011;90;48.810;9.120;2023-05-07T07:53:15;13.43;;;7.10;;
209;SDS011;90;48.810;9.120;2023-05-07T07:55:42;7.00;;;6.50;;
209;SDS011;90;48.810;9.120;2023-05-07T07:58:10;7.10;;;6.80;;
209;SDS011;90;48.810;9.120;2023-05-07T08:00:37;9.23;;;7.13;;
209;SDS011;90;48.810;9.120;2023-05-07T08:03:04;6.43;;;5.97;;
209;SDS011;90;48.810;9.120;2023-05-07T08:05:32;7.67;;;7.07;;
209;SDS011;90;48.810;9.120;2023-05-07T08:07:58;7.40;;;7.00;;
209;SDS011;90;48.810;9.120;2023-05-07T08:10:25;11.23;;;5.83;;
209;SDS011;90;48.810;9.120;2023-05-07T08:12:52;10.23;;;7.27;;
209;SDS011;90;48.810;9.120;2023-05-07T08:15:20;8.23;;;7.00;;
209;SDS011;90;48.810;9.120;2023-05-07T08:17:47;11.30;;;7.10;;
209;SDS011;90;48.810;9.120;2023-05-07T08:20:14;8.37;;;7.93;;
209;SDS011;90;48.810;9.120;2023-05-07T08:22:40;6.93;;;6.53;;
209;SDS011;90;48.810;9.120;2023-05-07T08:25:07;8.47;;;7.27;;
209;SDS011;90;48.810;9.120;2023-05-07T08:27:34;6.53;;;6.13;;
209;SDS011;90;48.810;9.120;2023-05-07T08:30:01;7.27;;;6.87;;
209;SDS011;90;48.810;9.120;2023-05-07T08:32:30;8.60;;;8.10;;
209;SDS011;90;48.810;9.120;2023-05-07T08:34:57;8.00;;;7.60;;
209;SDS011;90;48.810;9.120;2023-05-07T08:37:26;8.27;;;7.30;;
209;SDS011;90;48.810;9.120;2023-05-07T08:39:53;8.07;;;7.67;;
209;SDS011;90;48.810;9.120;2023-05-07T08:42:20;7.80;;;7.43;;
209;SDS011;90;48.810;9.120;2023-05-07T08:44:49;9.57;;;8.67;;
209;SDS011;90;48.810;9.120;2023-05-07T08:47:19;7.97;;;7.40;;
209;SDS011;90;48.810;9.120;2023-05-07T08:49:56;11.80;;;7.33;;
209;SDS011;90;48.810;9.120;2023-05-07T08:52:23;12.10;;;7.57;;
209;SDS011;90;48.810;9.120;2023-05-07T08:54:51;10.40;;;8.10;;
209;SDS011;90;48.810;9.120;2023-05-07T08:57:17;8.13;;;7.00;;
209;SDS011;90;48.810;9.120;2023-05-07T08:59:44;8.83;;;7.20;;
209;SDS011;90;48.810;9.120;2023-05-07T09:02:12;10.53;;;7.10;;
209;SDS011;90;48.810;9.120;2023-05-07T09:04:39;7.30;;;6.90;;
209;SDS011;90;48.810;9.120;2023-05-07T09:07:07;8.17;;;6.83;;
209;SDS011;90;48.810;9.120;2023-05-07T09:09:34;7.57;;;7.17;;
209;SDS011;90;48.810;9.120;2023-05-07T09:12:01;7.97;;;7.40;;
209;SDS011;90;48.810;9.120;2023-05-07T09:14:28;7.90;;;7.50;;
209;SDS011;90;48.810;9.120;2023-05-07T09:16:55;7.67;;;7.27;;
209;SDS011;90;48.810;9.120;2023-05-07T09:19:22;7.27;;;6.57;;
209;SDS011;90;48.810;9.120;2023-05-07T09:21:49;6.50;;;6.10;;
209;SDS011;90;48.810;9.120;2023-05-07T09:24:17;6.90;;;6.50;;
209;SDS011;90;48.810;9.120;2023-05-07T09:26:46;7.30;;;6.90;;
209;SDS011;90;48.810;9.120;2023-05-07T09:29:18;7.13;;;6.70;;
209;SDS011;90;48.810;9.120;2023-05-07T09:31:47;7.50;;;7.10;;
209;SDS011;90;48.810;9.120;2023-05-07T09:34:14;6.50;;;6.10;;
209;SDS011;90;48.810;9.120;2023-05-07T09:36:42;6.90;;;6.50;;
209;SDS011;90;48.810;9.120;2023-05-07T09:39:09;7.00;;;6.60;;
209;SDS011;90;48.810;9.120;2023-05-07T09:41:44;10.00;;;6.80;;
209;SDS011;90;48.810;9.120;2023-05-07T09:44:12;6.70;;;6.30;;
209;SDS011;90;48.810;9.120;2023-05-07T09:46:41;6.23;;;5.90;;
209;SDS011;90;48.810;9.120;2023-05-07T09:49:10;6.23;;;5.90;;
209;SDS011;90;48.810;9.120;2023-05-07T09:51:43;7.87;;;6.20;;
209;SDS011;90;48.810;9.120;2023-05-07T09:54:14;6.10;;;5.80;;
209;SDS011;90;48.810;9.120;2023-05-07T09:56:41;6.40;;;6.00;;
209;SDS011;90;48.810;9.120;2023-05-07T09:59:10;5.80;;;5.50;;
209;SDS011;90;48.810;9.120;2023-05-07T10:01:40;6.63;;;5.97;;
209;SDS011;90;48.810;9.120;2023-05-07T10:04:08;6.17;;;5.90;;
209;SDS011;90;48.810;9.120;2023-05-07T10:06:35;6.67;;;6.27;;
209;SDS011;90;48.810;9.120;2023-05-07T10:09:03;6.83;;;6.43;;
209;SDS011;90;48.810;9.120;2023-05-07T10:11:31;6.13;;;5.83;;
209;SDS011;90;48.810;9.120;2023-05-07T10:14:00;5.70;;;5.40;;
209;SDS011;90;48.810;9.120;2023-05-07T10:16:27;5.47;;;5.17;;
209;SDS011;90;48.810;9.120;2023-05-07T10:18:57;6.07;;;5.77;;
209;SDS011;90;48.810;9.120;2023-05-07T10:21:24;6.80;;;6.40;;
209;SDS011;90;48.810;9.120;2023-05-07T10:23:55;6.20;;;5.90;;
209;SDS011;90;48.810;9.120;2023-05-07T10:26:25;6.83;;;6.43;;
209;SDS011;90;48.810;9.120;2023-05-07T10:28:56;6.03;;;5.73;;
209;SDS011;90;48.810;9.120;2023-05-07T10:31:36;6.10;;;5.80;;
209;SDS011;90;48.810;9.120;2023-05-07T10:34:21;6.57;;;6.17;;
209;SDS011;90;48.810;9.120;2023-05-07T10:36:50;6.90;;;6.50;;
209;SDS011;90;48.810;9.120;2023-05-07T10:39:18;6.40;;;6.00;;
209;SDS011;90;48.810;9.120;2023-05-07T10:41:46;6.50;;;6.10;;
209;SDS011;90;48.810;9.120;2023-05-07T10:44:25;6.33;;;5.97;;
209;SDS011;90;48.810;9.120;2023-05-07T10:47:03;6.60;;;6.20;;
209;SDS011;90;48.810;9.120;2023-05-07T10:49:31;6.93;;;6.30;;
209;SDS011;90;48.810;9.120;2023-05-07T10:52:10;14.77;;;6.50;;
209;SDS011;90;48.810;9.120;2023-05-07T10:54:40;7.40;;;7.00;;
209;SDS011;90;48.810;9.120;2023-05-07T11:00:00;6.90;;;6.50;;
209;SDS011;90;48.810;9.120;2023-05-07T11:05:26;6.47;;;6.07;;
209;SDS011;90;48.810;9.120;2023-05-07T11:07:55;6.43;;;6.03;;
209;SDS011;90;48.810;9.120;2023-05-07T11:10:22;6.40;;;6.00;;
209;SDS011;90;48.810;9.120;2023-05-07T11:12:50;7.17;;;6.60;;
209;SDS011;90;48.810;9.120;2023-05-07T11:15:35;7.37;;;6.90;;
209;SDS011;90;48.810;9.120;2023-05-07T11:18:10;6.97;;;6.57;;
209;SDS011;90;48.810;9.120;2023-05-07T11:20:48;6.90;;;6.50;;
209;SDS011;90;48.810;9.120;2023-05-07T11:26:41;6.53;;;6.13;;
209;SDS011;90;48.810;9.120;2023-05-07T11:29:14;6.10;;;5.80;;
209;SDS011;90;48.810;9.120;2023-05-07T11:31:43;6.20;;;5.90;;
209;SDS011;90;48.810;9.120;2023-05-07T11:34:10;6.70;;;6.30;;
209;SDS011;90;48.810;9.120;2023-05-07T11:36:41;9.03;;;7.27;;
209;SDS011;90;48.810;9.120;2023-05-07T11:39:26;6.90;;;6.50;;
209;SDS011;90;48.810;9.120;2023-05-07T11:41:54;6.80;;;6.40;;
209;SDS011;90;48.810;9.120;2023-05-07T11:44:20;7.60;;;7.20;;
209;SDS011;90;48.810;9.120;2023-05-07T11:46:48;10.40;;;7.13;;
209;SDS011;90;48.810;9.120;2023-05-07T11:49:15;10.00;;;7.30;;
209;SDS011;90;48.810;9.120;2023-05-07T11:51:43;10.53;;;7.60;;
209;SDS011;90;48.810;9.120;2023-05-07T11:54:11;12.63;;;7.30;;
209;SDS011;90;48.810;9.120;2023-05-07T11:56:42;8.30;;;7.67;;
209;SDS011;90;48.810;9.120;2023-05-07T11:59:10;8.00;;;7.60;;
209;SDS011;90;48.810;9.120;2023-05-07T12:01:36;7.77;;;7.37;;
209;SDS011;90;48.810;9.120;2023-05-07T12:04:08;11.20;;;7.60;;
209;SDS011;90;48.810;9.120;2023-05-07T12:06:35;7.00;;;6.60;;
209;SDS011;90;48.810;9.120;2023-05-07T12:09:04;6.83;;;6.43;;
209;SDS011;90;48.810;9.120;2023-05-07T12:11:36;9.87;;;7.07;;
209;SDS011;90;48.810;9.120;2023-05-07T12:14:04;6.65;;;5.70;;
209;SDS011;90;48.810;9.120;2023-05-07T12:16:31;9.67;;;6.80;;
209;SDS011;90;48.810;9.120;2023-05-07T12:18:59;6.77;;;6.37;;
209;SDS011;90;48.810;9.120;2023-05-07T12:21:27;7.27;;;6.37;;
209;SDS011;90;48.810;9.120;2023-05-07T12:23:56;6.17;;;5.87;;
209;SDS011;90;48.810;9.120;2023-05-07T12:26:23;7.38;;;5.50;;
209;SDS011;90;48.810;9.120;2023-05-07T12:28:50;5.13;;;4.83;;
209;SDS011;90;48.810;9.120;2023-05-07T12:31:17;5.73;;;5.40;;
209;SDS011;90;48.810;9.120;2023-05-07T12:33:44;9.83;;;5.43;;
209;SDS011;90;48.810;9.120;2023-05-07T12:36:12;7.70;;;5.97;;
209;SDS011;90;48.810;9.120;2023-05-07T12:38:42;7.30;;;5.90;;
209;SDS011;90;48.810;9.120;2023-05-07T12:41:09;11.50;;;6.70;;
209;SDS011;90;48.810;9.120;2023-05-07T12:43:37;7.97;;;7.10;;
209;SDS011;90;48.810;9.120;2023-05-07T12:46:05;10.03;;;7.23;;
209;SDS011;90;48.810;9.120;2023-05-07T12:48:33;8.10;;;7.37;;
209;SDS011;90;48.810;9.120;2023-05-07T12:51:02;7.40;;;6.83;;
209;SDS011;90;48.810;9.120;2023-05-07T12:53:29;5.80;;;5.50;;
209;SDS011;90;48.810;9.120;2023-05-07T12:55:58;5.73;;;5.43;;
209;SDS011;90;48.810;9.120;2023-05-07T12:58:26;5.60;;;5.30;;
209;SDS011;90;48.810;9.120;2023-05-07T13:00:54;7.60;;;4.20;;
209;SDS011;90;48.810;9.120;2023-05-07T13:03:24;4.67;;;4.37;;
209;SDS011;90;48.810;9.120;2023-05-07T13:05:52;4.73;;;4.43;;
209;SDS011;90;48.810;9.120;2023-05-07T13:08:26;4.87;;;4.57;;
209;SDS011;90;48.810;9.120;2023-05-07T13:10:54;5.13;;;4.00;;
209;SDS011;90;48.810;9.120;2023-05-07T13:13:22;4.00;;;3.80;;
209;SDS011;90;48.810;9.120;2023-05-07T13:15:49;4.80;;;4.50;;
209;SDS011;90;48.810;9.120;2023-05-07T13:18:16;12.97;;;4.77;;
209;SDS011;90;48.810;9.120;2023-05-07T13:20:43;6.53;;;4.40;;
209;SDS011;90;48.810;9.120;2023-05-07T13:23:10;15.07;;;5.87;;
209;SDS011;90;48.810;9.120;2023-05-07T13:25:36;9.53;;;4.93;;
209;SDS011;90;48.810;9.120;2023-05-07T13:28:03;4.40;;;4.10;;
209;SDS011;90;48.810;9.120;2023-05-07T13:30:34;6.87;;;4.30;;
209;SDS011;90;48.810;9.120;2023-05-07T13:33:03;7.57;;;4.20;;
209;SDS011;90;48.810;9.120;2023-05-07T13:35:30;4.43;;;4.10;;
209;SDS011;90;48.810;9.120;2023-05-07T13:37:57;4.03;;;3.87;;
209;SDS011;90;48.810;9.120;2023-05-07T13:40:23;5.23;;;3.20;;
209;SDS011;90;48.810;9.120;2023-05-07T13:42:50;7.63;;;3.97;;
209;SDS011;90;48.810;9.120;2023-05-07T13:45:17;6.80;;;3.80;;
209;SDS011;90;48.810;9.120;2023-05-07T13:47:46;6.87;;;4.00;;
209;SDS011;90;48.810;9.120;2023-05-07T13:50:14;3.77;;;3.20;;
209;SDS011;90;48.810;9.120;2023-05-07T13:52:41;3.77;;;3.60;;
209;SDS011;90;48.810;9.120;2023-05-07T13:55:10;4.00;;;3.43;;
209;SDS011;90;48.810;9.120;2023-05-07T13:57:37;4.07;;;3.67;;
209;SDS011;90;48.810;9.120;2023-05-07T14:00:05;3.30;;;3.10;;
209;SDS011;90;48.810;9.120;2023-05-07T14:02:32;3.93;;;3.77;;
209;SDS011;90;48.810;9.120;2023-05-07T14:05:00;6.33;;;3.60;;
209;SDS011;90;48.810;9.120;2023-05-07T14:07:27;4.73;;;3.60;;
209;SDS011;90;48.810;9.120;2023-05-07T14:09:54;4.73;;;3.00;;
209;SDS011;90;48.810;9.120;2023-05-07T14:12:21;3.07;;;2.87;;
209;SDS011;90;48.810;9.120;2023-05-07T14:14:47;3.80;;;3.60;;
209;SDS011;90;48.810;9.120;2023-05-07T14:17:15;10.63;;;3.80;;
209;SDS011;90;48.810;9.120;2023-05-07T14:19:42;4.40;;;4.10;;
209;SDS011;90;48.810;9.120;2023-05-07T14:22:10;3.97;;;3.77;;
209;SDS011;90;48.810;9.120;2023-05-07T14:24:39;4.47;;;4.17;;
209;SDS011;90;48.810;9.120;2023-05-07T14:27:05;4.47;;;4.17;;
209;SDS011;90;48.810;9.120;2023-05-07T14:29:32;5.10;;;4.60;;
209;SDS011;90;48.810;9.120;2023-05-07T14:32:00;4.60;;;4.30;;
209;SDS011;90;48.810;9.120;2023-05-07T14:34:27;5.53;;;4.53;;
209;SDS011;90;48.810;9.120;2023-05-07T14:36:53;5.47;;;5.20;;
209;SDS011;90;48.810;9.120;2023-05-07T14:39:22;7.13;;;5.00;;
209;SDS011;90;48.810;9.120;2023-05-07T14:41:48;4.30;;;3.80;;
209;SDS011;90;48.810;9.120;2023-05-07T14:44:15;4.37;;;4.07;;
209;SDS011;90;48.810;9.120;2023-05-07T14:46:42;5.67;;;3.97;;
209;SDS011;90;48.810;9.120;2023-05-07T14:49:08;4.30;;;3.80;;
209;SDS011;90;48.810;9.120;2023-05-07T14:51:42;4.40;;;4.10;;
209;SDS011;90;48.810;9.120;2023-05-07T14:54:09;4.50;;;4.20;;
209;SDS011;90;48.810;9.120;2023-05-07T14:56:37;3.70;;;3.50;;
209;SDS011;90;48.810;9.120;2023-05-07T14:59:04;4.43;;;4.13;;
209;SDS011;90;48.810;9.120;2023-05-07T15:01:31;4.63;;;3.97;;
209;SDS011;90;48.810;9.120;2023-05-07T15:03:59;3.57;;;3.37;;
209;SDS011;90;48.810;9.120;2023-05-07T15:06:26;4.03;;;3.83;;
209;SDS011;90;48.810;9.120;2023-05-07T15:08:53;4.50;;;4.20;;
209;SDS011;90;48.810;9.120;2023-05-07T15:11:19;4.37;;;4.00;;
209;SDS011;90;48.810;9.120;2023-05-07T15:13:48;4.33;;;4.03;;
209;SDS011;90;48.810;9.120;2023-05-07T15:16:15;5.87;;;5.57;;
209;SDS011;90;48.810;9.120;2023-05-07T15:18:42;6.80;;;4.90;;
209;SDS011;90;48.810;9.120;2023-05-07T15:21:09;5.30;;;5.00;;
209;SDS011;90;48.810;9.120;2023-05-07T15:23:36;5.73;;;5.43;;
209;SDS011;90;48.810;9.120;2023-05-07T15:26:03;4.70;;;4.40;;
209;SDS011;90;48.810;9.120;2023-05-07T15:28:30;4.83;;;4.53;;
209;SDS011;90;48.810;9.120;2023-05-07T15:31:02;4.93;;;4.63;;
209;SDS011;90;48.810;9.120;2023-05-07T15:33:30;5.40;;;5.10;;
209;SDS011;90;48.810;9.120;2023-05-07T15:35:58;5.43;;;4.80;;
209;SDS011;90;48.810;9.120;2023-05-07T15:38:24;5.30;;;4.93;;
209;SDS011;90;48.810;9.120;2023-05-07T15:40:52;5.23;;;4.93;;
209;SDS011;90;48.810;9.120;2023-05-07T15:43:19;6.40;;;5.00;;
209;SDS011;90;48.810;9.120;2023-05-07T15:45:46;6.10;;;5.77;;
209;SDS011;90;48.810;9.120;2023-05-07T15:48:14;6.27;;;5.40;;
209;SDS011;90;48.810;9.120;2023-05-07T15:50:41;5.90;;;5.50;;
209;SDS011;90;48.810;9.120;2023-05-07T15:53:08;4.97;;;4.67;;
209;SDS011;90;48.810;9.120;2023-05-07T15:55:37;9.00;;;5.40;;
209;SDS011;90;48.810;9.120;2023-05-07T15:58:08;5.47;;;4.93;;
209;SDS011;90;48.810;9.120;2023-05-07T16:00:35;7.30;;;6.90;;
209;SDS011;90;48.810;9.120;2023-05-07T16:03:04;6.40;;;6.00;;
209;SDS011;90;48.810;9.120;2023-05-07T16:05:32;6.70;;;6.30;;
209;SDS011;90;48.810;9.120;2023-05-07T16:07:59;7.00;;;6.33;;
209;SDS011;90;48.810;9.120;2023-05-07T16:10:26;6.50;;;6.10;;
209;SDS011;90;48.810;9.120;2023-05-07T16:12:52;7.57;;;6.90;;